sensor_id;sensor_type;location;lat;lon;timestamp;P1;P2;P0
49462;PMS5003;35357;51.722;0.500;2023-08-31T00:01:52;7;6;
49462;PMS5003;35357;51.722;0.500;2023-08-31T00:04:19;6;6;
49462;PMS5003;35357;51.722;0.500;2023-08-31T00:06:47;5;5;
49462;PMS5003;35357;51.722;0.500;2023-08-31T00:09:14;7;7;
49462;PMS5003;35357;51.722;0.500;2023-08-31T00:11:40;5;5;
49462;PMS5003;35357;51.722;0.500;2023-08-31T00:14:07;6;6;
49462;PMS5003;35357;51.722;0.500;2023-08-31T00:16:34;7;7;
49462;PMS5003;35357;51.722;0.500;2023-08-31T00:19:01;5;5;
49462;PMS5003;35357;51.722;0.500;2023-08-31T00:21:28;6;6;
49462;PMS5003;35357;51.722;0.500;2023-08-31T00:23:55;6;6;
49462;PMS5003;35357;51.722;0.500;2023-08-31T00:26:22;7;7;
49462;PMS5003;35357;51.722;0.500;2023-08-31T00:28:49;7;7;
49462;PMS5003;35357;51.722;0.500;2023-08-31T00:31:16;7;6;
49462;PMS5003;35357;51.722;0.500;2023-08-31T00:33:43;6;6;
49462;PMS5003;35357;51.722;0.500;2023-08-31T00:36:10;5;5;
49462;PMS5003;35357;51.722;0.500;2023-08-31T00:38:37;5;5;
49462;PMS5003;35357;51.722;0.500;2023-08-31T00:41:04;5;5;
49462;PMS5003;35357;51.722;0.500;2023-08-31T00:43:31;7;5;
49462;PMS5003;35357;51.722;0.500;2023-08-31T00:45:58;8;7;
49462;PMS5003;35357;51.722;0.500;2023-08-31T00:48:25;5;5;
49462;PMS5003;35357;51.722;0.500;2023-08-31T00:50:52;7;6;
49462;PMS5003;35357;51.722;0.500;2023-08-31T00:53:20;5;5;
49462;PMS5003;35357;51.722;0.500;2023-08-31T00:55:48;6;6;
49462;PMS5003;35357;51.722;0.500;2023-08-31T00:58:15;6;6;
49462;PMS5003;35357;51.722;0.500;2023-08-31T01:00:44;8;7;
49462;PMS5003;35357;51.722;0.500;2023-08-31T01:03:19;6;6;
49462;PMS5003;35357;51.722;0.500;2023-08-31T01:05:59;7;7;
49462;PMS5003;35357;51.722;0.500;2023-08-31T01:08:35;9;7;
49462;PMS5003;35357;51.722;0.500;2023-08-31T01:11:12;6;6;
49462;PMS5003;35357;51.722;0.500;2023-08-31T01:13:47;7;7;
49462;PMS5003;35357;51.722;0.500;2023-08-31T01:16:20;7;7;
49462;PMS5003;35357;51.722;0.500;2023-08-31T01:18:50;6;6;
49462;PMS5003;35357;51.722;0.500;2023-08-31T01:21:21;6;6;
49462;PMS5003;35357;51.722;0.500;2023-08-31T01:23:51;5;5;
49462;PMS5003;35357;51.722;0.500;2023-08-31T01:26:19;8;8;
49462;PMS5003;35357;51.722;0.500;2023-08-31T01:28:47;5;5;
49462;PMS5003;35357;51.722;0.500;2023-08-31T01:31:15;6;6;
49462;PMS5003;35357;51.722;0.500;2023-08-31T01:33:43;5;5;
49462;PMS5003;35357;51.722;0.500;2023-08-31T01:36:12;7;7;
49462;PMS5003;35357;51.722;0.500;2023-08-31T01:38:45;7;7;
49462;PMS5003;35357;51.722;0.500;2023-08-31T01:41:17;7;7;
49462;PMS5003;35357;51.722;0.500;2023-08-31T01:43:46;9;8;
49462;PMS5003;35357;51.722;0.500;2023-08-31T01:46:15;6;6;
49462;PMS5003;35357;51.722;0.500;2023-08-31T01:48:42;6;6;
49462;PMS5003;35357;51.722;0.500;2023-08-31T01:51:09;6;6;
49462;PMS5003;35357;51.722;0.500;2023-08-31T01:53:37;5;5;
49462;PMS5003;35357;51.722;0.500;2023-08-31T01:56:04;7;6;
49462;PMS5003;35357;51.722;0.500;2023-08-31T01:58:31;6;6;
49462;PMS5003;35357;51.722;0.500;2023-08-31T02:00:58;3;3;
49462;PMS5003;35357;51.722;0.500;2023-08-31T02:03:25;5;5;
49462;PMS5003;35357;51.722;0.500;2023-08-31T02:05:51;4;4;
49462;PMS5003;35357;51.722;0.500;2023-08-31T02:08:18;6;5;
49462;PMS5003;35357;51.722;0.500;2023-08-31T02:10:45;6;5;
49462;PMS5003;35357;51.722;0.500;2023-08-31T02:13:13;6;5;
49462;PMS5003;35357;51.722;0.500;2023-08-31T02:15:41;5;5;
49462;PMS5003;35357;51.722;0.500;2023-08-31T02:18:08;6;5;
49462;PMS5003;35357;51.722;0.500;2023-08-31T02:20:35;4;4;
49462;PMS5003;35357;51.722;0.500;2023-08-31T02:23:02;7;6;
49462;PMS5003;35357;51.722;0.500;2023-08-31T02:25:30;6;6;
49462;PMS5003;35357;51.722;0.500;2023-08-31T02:27:57;5;5;
49462;PMS5003;35357;51.722;0.500;2023-08-31T02:30:24;7;6;
49462;PMS5003;35357;51.722;0.500;2023-08-31T02:32:51;5;5;
49462;PMS5003;35357;51.722;0.500;2023-08-31T02:35:18;6;5;
49462;PMS5003;35357;51.722;0.500;2023-08-31T02:37:45;6;6;
49462;PMS5003;35357;51.722;0.500;2023-08-31T02:40:12;4;4;
49462;PMS5003;35357;51.722;0.500;2023-08-31T02:42:39;6;5;
49462;PMS5003;35357;51.722;0.500;2023-08-31T02:45:06;4;4;
49462;PMS5003;35357;51.722;0.500;2023-08-31T02:47:33;6;6;
49462;PMS5003;35357;51.722;0.500;2023-08-31T02:50:00;5;5;
49462;PMS5003;35357;51.722;0.500;2023-08-31T02:52:27;4;4;
49462;PMS5003;35357;51.722;0.500;2023-08-31T02:54:54;5;5;
49462;PMS5003;35357;51.722;0.500;2023-08-31T02:57:21;5;5;
49462;PMS5003;35357;51.722;0.500;2023-08-31T02:59:49;6;5;
49462;PMS5003;35357;51.722;0.500;2023-08-31T03:02:16;5;5;
49462;PMS5003;35357;51.722;0.500;2023-08-31T03:04:43;6;6;
49462;PMS5003;35357;51.722;0.500;2023-08-31T03:07:09;7;6;
49462;PMS5003;35357;51.722;0.500;2023-08-31T03:09:36;6;6;
49462;PMS5003;35357;51.722;0.500;2023-08-31T03:12:03;6;5;
49462;PMS5003;35357;51.722;0.500;2023-08-31T03:14:31;7;7;
49462;PMS5003;35357;51.722;0.500;2023-08-31T03:16:58;5;5;
49462;PMS5003;35357;51.722;0.500;2023-08-31T03:19:24;6;6;
49462;PMS5003;35357;51.722;0.500;2023-08-31T03:21:51;5;5;
49462;PMS5003;35357;51.722;0.500;2023-08-31T03:24:18;6;6;
49462;PMS5003;35357;51.722;0.500;2023-08-31T03:26:45;5;5;
49462;PMS5003;35357;51.722;0.500;2023-08-31T03:29:12;5;5;
49462;PMS5003;35357;51.722;0.500;2023-08-31T03:31:38;4;4;
49462;PMS5003;35357;51.722;0.500;2023-08-31T03:34:05;4;4;
49462;PMS5003;35357;51.722;0.500;2023-08-31T03:36:32;5;4;
49462;PMS5003;35357;51.722;0.500;2023-08-31T03:38:59;5;5;
49462;PMS5003;35357;51.722;0.500;2023-08-31T03:41:26;5;5;
49462;PMS5003;35357;51.722;0.500;2023-08-31T03:43:52;6;6;
49462;PMS5003;35357;51.722;0.500;2023-08-31T03:46:19;6;6;
49462;PMS5003;35357;51.722;0.500;2023-08-31T03:48:46;4;4;
49462;PMS5003;35357;51.722;0.500;2023-08-31T03:51:13;7;7;
49462;PMS5003;35357;51.722;0.500;2023-08-31T03:53:40;5;4;
49462;PMS5003;35357;51.722;0.500;2023-08-31T03:56:06;6;6;
49462;PMS5003;35357;51.722;0.500;2023-08-31T03:58:33;4;4;
49462;PMS5003;35357;51.722;0.500;2023-08-31T04:01:00;5;5;
49462;PMS5003;35357;51.722;0.500;2023-08-31T04:03:27;7;6;
49462;PMS5003;35357;51.722;0.500;2023-08-31T04:05:54;6;5;
49462;PMS5003;35357;51.722;0.500;2023-08-31T04:08:21;7;6;
49462;PMS5003;35357;51.722;0.500;2023-08-31T04:10:49;3;3;
49462;PMS5003;35357;51.722;0.500;2023-08-31T04:13:16;5;5;
49462;PMS5003;35357;51.722;0.500;2023-08-31T04:15:43;7;6;
49462;PMS5003;35357;51.722;0.500;2023-08-31T04:18:10;5;4;
49462;PMS5003;35357;51.722;0.500;2023-08-31T04:20:37;7;7;
49462;PMS5003;35357;51.722;0.500;2023-08-31T04:23:04;6;6;
49462;PMS5003;35357;51.722;0.500;2023-08-31T04:25:31;6;5;
49462;PMS5003;35357;51.722;0.500;2023-08-31T04:27:58;4;4;
49462;PMS5003;35357;51.722;0.500;2023-08-31T04:30:25;6;6;
49462;PMS5003;35357;51.722;0.500;2023-08-31T04:32:52;8;8;
49462;PMS5003;35357;51.722;0.500;2023-08-31T04:35:19;7;7;
49462;PMS5003;35357;51.722;0.500;2023-08-31T04:37:46;8;7;
49462;PMS5003;35357;51.722;0.500;2023-08-31T04:40:13;6;6;
49462;PMS5003;35357;51.722;0.500;2023-08-31T04:42:40;9;8;
49462;PMS5003;35357;51.722;0.500;2023-08-31T04:45:08;6;5;
49462;PMS5003;35357;51.722;0.500;2023-08-31T04:47:35;5;5;
49462;PMS5003;35357;51.722;0.500;2023-08-31T04:50:03;6;6;
49462;PMS5003;35357;51.722;0.500;2023-08-31T04:52:31;7;6;
49462;PMS5003;35357;51.722;0.500;2023-08-31T04:55:00;6;4;
49462;PMS5003;35357;51.722;0.500;2023-08-31T04:57:27;7;5;
49462;PMS5003;35357;51.722;0.500;2023-08-31T04:59:54;7;7;
49462;PMS5003;35357;51.722;0.500;2023-08-31T05:02:23;7;7;
49462;PMS5003;35357;51.722;0.500;2023-08-31T05:04:50;7;7;
49462;PMS5003;35357;51.722;0.500;2023-08-31T05:07:17;7;7;
49462;PMS5003;35357;51.722;0.500;2023-08-31T05:09:44;7;7;
49462;PMS5003;35357;51.722;0.500;2023-08-31T05:12:11;7;7;
49462;PMS5003;35357;51.722;0.500;2023-08-31T05:14:38;7;7;
49462;PMS5003;35357;51.722;0.500;2023-08-31T05:17:05;7;7;
49462;PMS5003;35357;51.722;0.500;2023-08-31T05:19:32;7;7;
49462;PMS5003;35357;51.722;0.500;2023-08-31T05:22:00;8;7;
49462;PMS5003;35357;51.722;0.500;2023-08-31T05:24:27;7;6;
49462;PMS5003;35357;51.722;0.500;2023-08-31T05:26:54;6;6;
49462;PMS5003;35357;51.722;0.500;2023-08-31T05:29:21;5;5;
49462;PMS5003;35357;51.722;0.500;2023-08-31T05:31:48;9;9;
49462;PMS5003;35357;51.722;0.500;2023-08-31T05:34:16;6;6;
49462;PMS5003;35357;51.722;0.500;2023-08-31T05:36:43;7;7;
49462;PMS5003;35357;51.722;0.500;2023-08-31T05:39:10;7;7;
49462;PMS5003;35357;51.722;0.500;2023-08-31T05:41:39;7;5;
49462;PMS5003;35357;51.722;0.500;2023-08-31T05:44:07;7;6;
49462;PMS5003;35357;51.722;0.500;2023-08-31T05:46:34;5;5;
49462;PMS5003;35357;51.722;0.500;2023-08-31T05:49:01;8;7;
49462;PMS5003;35357;51.722;0.500;2023-08-31T05:51:29;7;7;
49462;PMS5003;35357;51.722;0.500;2023-08-31T05:53:56;8;7;
49462;PMS5003;35357;51.722;0.500;2023-08-31T05:56:23;6;5;
49462;PMS5003;35357;51.722;0.500;2023-08-31T05:58:51;7;6;
49462;PMS5003;35357;51.722;0.500;2023-08-31T06:01:17;5;5;
49462;PMS5003;35357;51.722;0.500;2023-08-31T06:03:44;8;8;
49462;PMS5003;35357;51.722;0.500;2023-08-31T06:06:11;6;6;
49462;PMS5003;35357;51.722;0.500;2023-08-31T06:08:38;7;7;
49462;PMS5003;35357;51.722;0.500;2023-08-31T06:11:05;8;8;
49462;PMS5003;35357;51.722;0.500;2023-08-31T06:13:32;7;7;
49462;PMS5003;35357;51.722;0.500;2023-08-31T06:15:59;7;7;
49462;PMS5003;35357;51.722;0.500;2023-08-31T06:18:26;7;7;
49462;PMS5003;35357;51.722;0.500;2023-08-31T06:20:52;9;9;
49462;PMS5003;35357;51.722;0.500;2023-08-31T06:23:19;7;7;
49462;PMS5003;35357;51.722;0.500;2023-08-31T06:25:46;9;8;
49462;PMS5003;35357;51.722;0.500;2023-08-31T06:28:14;7;7;
49462;PMS5003;35357;51.722;0.500;2023-08-31T06:30:41;10;9;
49462;PMS5003;35357;51.722;0.500;2023-08-31T06:33:08;9;8;
49462;PMS5003;35357;51.722;0.500;2023-08-31T06:35:35;9;8;
49462;PMS5003;35357;51.722;0.500;2023-08-31T06:38:02;9;8;
49462;PMS5003;35357;51.722;0.500;2023-08-31T06:40:30;11;11;
49462;PMS5003;35357;51.722;0.500;2023-08-31T06:42:58;9;9;
49462;PMS5003;35357;51.722;0.500;2023-08-31T06:45:24;9;8;
49462;PMS5003;35357;51.722;0.500;2023-08-31T06:47:51;11;11;
49462;PMS5003;35357;51.722;0.500;2023-08-31T06:50:18;11;11;
49462;PMS5003;35357;51.722;0.500;2023-08-31T06:52:45;10;10;
49462;PMS5003;35357;51.722;0.500;2023-08-31T06:55:12;10;9;
49462;PMS5003;35357;51.722;0.500;2023-08-31T06:57:40;12;12;
49462;PMS5003;35357;51.722;0.500;2023-08-31T07:00:07;9;9;
49462;PMS5003;35357;51.722;0.500;2023-08-31T07:02:36;11;11;
49462;PMS5003;35357;51.722;0.500;2023-08-31T07:05:05;9;9;
49462;PMS5003;35357;51.722;0.500;2023-08-31T07:07:33;13;12;
49462;PMS5003;35357;51.722;0.500;2023-08-31T07:10:00;10;10;
49462;PMS5003;35357;51.722;0.500;2023-08-31T07:12:28;13;12;
49462;PMS5003;35357;51.722;0.500;2023-08-31T07:14:55;10;10;
49462;PMS5003;35357;51.722;0.500;2023-08-31T07:17:22;12;12;
49462;PMS5003;35357;51.722;0.500;2023-08-31T07:19:50;12;11;
49462;PMS5003;35357;51.722;0.500;2023-08-31T07:22:18;10;9;
49462;PMS5003;35357;51.722;0.500;2023-08-31T07:24:45;11;11;
49462;PMS5003;35357;51.722;0.500;2023-08-31T07:27:13;13;12;
49462;PMS5003;35357;51.722;0.500;2023-08-31T07:29:40;10;9;
49462;PMS5003;35357;51.722;0.500;2023-08-31T07:32:06;8;8;
49462;PMS5003;35357;51.722;0.500;2023-08-31T07:34:33;9;9;
49462;PMS5003;35357;51.722;0.500;2023-08-31T07:37:01;6;6;
49462;PMS5003;35357;51.722;0.500;2023-08-31T07:39:28;10;7;
49462;PMS5003;35357;51.722;0.500;2023-08-31T07:41:57;7;7;
49462;PMS5003;35357;51.722;0.500;2023-08-31T07:44:24;7;6;
49462;PMS5003;35357;51.722;0.500;2023-08-31T07:46:52;8;8;
49462;PMS5003;35357;51.722;0.500;2023-08-31T07:49:19;7;7;
49462;PMS5003;35357;51.722;0.500;2023-08-31T07:51:45;6;6;
49462;PMS5003;35357;51.722;0.500;2023-08-31T07:54:18;9;9;
49462;PMS5003;35357;51.722;0.500;2023-08-31T07:56:46;7;6;
49462;PMS5003;35357;51.722;0.500;2023-08-31T07:59:12;9;8;
49462;PMS5003;35357;51.722;0.500;2023-08-31T08:01:40;6;6;
49462;PMS5003;35357;51.722;0.500;2023-08-31T08:04:07;6;5;
49462;PMS5003;35357;51.722;0.500;2023-08-31T08:06:34;7;6;
49462;PMS5003;35357;51.722;0.500;2023-08-31T08:09:01;7;7;
49462;PMS5003;35357;51.722;0.500;2023-08-31T08:11:29;6;6;
49462;PMS5003;35357;51.722;0.500;2023-08-31T08:13:55;5;5;
49462;PMS5003;35357;51.722;0.500;2023-08-31T08:16:24;4;4;
49462;PMS5003;35357;51.722;0.500;2023-08-31T08:18:51;6;6;
49462;PMS5003;35357;51.722;0.500;2023-08-31T08:21:18;5;5;
49462;PMS5003;35357;51.722;0.500;2023-08-31T08:23:50;3;3;
49462;PMS5003;35357;51.722;0.500;2023-08-31T08:26:19;3;3;
49462;PMS5003;35357;51.722;0.500;2023-08-31T08:28:46;6;6;
49462;PMS5003;35357;51.722;0.500;2023-08-31T08:31:13;5;5;
49462;PMS5003;35357;51.722;0.500;2023-08-31T08:33:40;5;5;
49462;PMS5003;35357;51.722;0.500;2023-08-31T08:36:06;3;3;
49462;PMS5003;35357;51.722;0.500;2023-08-31T08:38:34;3;3;
49462;PMS5003;35357;51.722;0.500;2023-08-31T08:41:04;2;2;
49462;PMS5003;35357;51.722;0.500;2023-08-31T08:43:31;3;3;
49462;PMS5003;35357;51.722;0.500;2023-08-31T08:46:01;5;4;
49462;PMS5003;35357;51.722;0.500;2023-08-31T08:48:32;4;4;
49462;PMS5003;35357;51.722;0.500;2023-08-31T08:51:01;3;3;
49462;PMS5003;35357;51.722;0.500;2023-08-31T08:53:30;5;5;
49462;PMS5003;35357;51.722;0.500;2023-08-31T08:55:57;5;3;
49462;PMS5003;35357;51.722;0.500;2023-08-31T08:58:25;9;8;
49462;PMS5003;35357;51.722;0.500;2023-08-31T09:00:52;6;6;
49462;PMS5003;35357;51.722;0.500;2023-08-31T09:03:21;8;7;
49462;PMS5003;35357;51.722;0.500;2023-08-31T09:05:49;7;7;
49462;PMS5003;35357;51.722;0.500;2023-08-31T09:08:17;8;8;
49462;PMS5003;35357;51.722;0.500;2023-08-31T09:10:51;7;7;
49462;PMS5003;35357;51.722;0.500;2023-08-31T09:13:18;5;5;
49462;PMS5003;35357;51.722;0.500;2023-08-31T09:15:45;6;6;
49462;PMS5003;35357;51.722;0.500;2023-08-31T09:18:14;6;6;
49462;PMS5003;35357;51.722;0.500;2023-08-31T09:20:43;6;6;
49462;PMS5003;35357;51.722;0.500;2023-08-31T09:23:11;7;7;
49462;PMS5003;35357;51.722;0.500;2023-08-31T09:25:40;10;8;
49462;PMS5003;35357;51.722;0.500;2023-08-31T09:28:09;6;6;
49462;PMS5003;35357;51.722;0.500;2023-08-31T09:30:36;7;7;
49462;PMS5003;35357;51.722;0.500;2023-08-31T09:33:04;6;6;
49462;PMS5003;35357;51.722;0.500;2023-08-31T09:35:32;8;8;
49462;PMS5003;35357;51.722;0.500;2023-08-31T09:38:05;9;8;
49462;PMS5003;35357;51.722;0.500;2023-08-31T09:40:35;6;6;
49462;PMS5003;35357;51.722;0.500;2023-08-31T09:43:02;4;4;
49462;PMS5003;35357;51.722;0.500;2023-08-31T09:45:31;7;7;
49462;PMS5003;35357;51.722;0.500;2023-08-31T09:47:59;5;5;
49462;PMS5003;35357;51.722;0.500;2023-08-31T09:50:28;4;4;
49462;PMS5003;35357;51.722;0.500;2023-08-31T09:52:58;6;6;
49462;PMS5003;35357;51.722;0.500;2023-08-31T09:55:28;7;7;
49462;PMS5003;35357;51.722;0.500;2023-08-31T09:57:56;8;8;
49462;PMS5003;35357;51.722;0.500;2023-08-31T10:00:24;8;8;
49462;PMS5003;35357;51.722;0.500;2023-08-31T10:02:53;10;10;
49462;PMS5003;35357;51.722;0.500;2023-08-31T10:05:23;9;9;
49462;PMS5003;35357;51.722;0.500;2023-08-31T10:07:51;11;10;
49462;PMS5003;35357;51.722;0.500;2023-08-31T10:10:18;9;7;
49462;PMS5003;35357;51.722;0.500;2023-08-31T10:12:46;9;7;
49462;PMS5003;35357;51.722;0.500;2023-08-31T10:15:15;9;8;
49462;PMS5003;35357;51.722;0.500;2023-08-31T10:17:43;6;6;
49462;PMS5003;35357;51.722;0.500;2023-08-31T10:20:11;5;5;
49462;PMS5003;35357;51.722;0.500;2023-08-31T10:22:41;10;9;
49462;PMS5003;35357;51.722;0.500;2023-08-31T10:25:08;7;6;
49462;PMS5003;35357;51.722;0.500;2023-08-31T10:27:37;5;5;
49462;PMS5003;35357;51.722;0.500;2023-08-31T10:30:36;7;6;
49462;PMS5003;35357;51.722;0.500;2023-08-31T10:33:19;6;6;
49462;PMS5003;35357;51.722;0.500;2023-08-31T10:35:48;6;6;
49462;PMS5003;35357;51.722;0.500;2023-08-31T10:38:16;10;8;
49462;PMS5003;35357;51.722;0.500;2023-08-31T10:41:23;5;5;
49462;PMS5003;35357;51.722;0.500;2023-08-31T10:43:51;7;7;
49462;PMS5003;35357;51.722;0.500;2023-08-31T10:46:27;12;10;
49462;PMS5003;35357;51.722;0.500;2023-08-31T10:48:57;8;7;
49462;PMS5003;35357;51.722;0.500;2023-08-31T10:51:26;10;9;
49462;PMS5003;35357;51.722;0.500;2023-08-31T10:54:12;11;10;
49462;PMS5003;35357;51.722;0.500;2023-08-31T10:56:54;12;11;
49462;PMS5003;35357;51.722;0.500;2023-08-31T10:59:40;11;10;
49462;PMS5003;35357;51.722;0.500;2023-08-31T11:02:09;12;12;
49462;PMS5003;35357;51.722;0.500;2023-08-31T11:04:52;12;11;
49462;PMS5003;35357;51.722;0.500;2023-08-31T11:07:23;13;13;
49462;PMS5003;35357;51.722;0.500;2023-08-31T11:09:51;14;14;
49462;PMS5003;35357;51.722;0.500;2023-08-31T11:12:21;14;13;
49462;PMS5003;35357;51.722;0.500;2023-08-31T11:14:49;14;14;
49462;PMS5003;35357;51.722;0.500;2023-08-31T11:17:16;11;11;
49462;PMS5003;35357;51.722;0.500;2023-08-31T11:19:43;12;12;
49462;PMS5003;35357;51.722;0.500;2023-08-31T11:22:11;10;10;
49462;PMS5003;35357;51.722;0.500;2023-08-31T11:24:38;13;12;
49462;PMS5003;35357;51.722;0.500;2023-08-31T11:27:07;10;10;
49462;PMS5003;35357;51.722;0.500;2023-08-31T11:29:36;14;13;
49462;PMS5003;35357;51.722;0.500;2023-08-31T11:32:05;11;10;
49462;PMS5003;35357;51.722;0.500;2023-08-31T11:34:32;11;11;
49462;PMS5003;35357;51.722;0.500;2023-08-31T11:36:59;13;11;
49462;PMS5003;35357;51.722;0.500;2023-08-31T11:39:26;12;11;
49462;PMS5003;35357;51.722;0.500;2023-08-31T11:41:54;9;9;
49462;PMS5003;35357;51.722;0.500;2023-08-31T11:44:21;11;9;
49462;PMS5003;35357;51.722;0.500;2023-08-31T11:46:49;15;13;
49462;PMS5003;35357;51.722;0.500;2023-08-31T11:49:16;12;12;
49462;PMS5003;35357;51.722;0.500;2023-08-31T11:51:45;12;12;
49462;PMS5003;35357;51.722;0.500;2023-08-31T11:54:13;11;11;
49462;PMS5003;35357;51.722;0.500;2023-08-31T11:56:43;13;12;
49462;PMS5003;35357;51.722;0.500;2023-08-31T11:59:16;13;13;
49462;PMS5003;35357;51.722;0.500;2023-08-31T12:01:44;9;9;
49462;PMS5003;35357;51.722;0.500;2023-08-31T12:04:13;9;9;
49462;PMS5003;35357;51.722;0.500;2023-08-31T12:06:41;9;9;
49462;PMS5003;35357;51.722;0.500;2023-08-31T12:09:12;10;10;
49462;PMS5003;35357;51.722;0.500;2023-08-31T12:11:39;10;9;
49462;PMS5003;35357;51.722;0.500;2023-08-31T12:14:18;8;7;
49462;PMS5003;35357;51.722;0.500;2023-08-31T12:16:46;8;7;
49462;PMS5003;35357;51.722;0.500;2023-08-31T12:19:14;6;6;
49462;PMS5003;35357;51.722;0.500;2023-08-31T12:21:42;5;5;
49462;PMS5003;35357;51.722;0.500;2023-08-31T12:24:10;4;4;
49462;PMS5003;35357;51.722;0.500;2023-08-31T12:26:38;5;4;
49462;PMS5003;35357;51.722;0.500;2023-08-31T12:29:06;3;3;
49462;PMS5003;35357;51.722;0.500;2023-08-31T12:31:32;4;3;
49462;PMS5003;35357;51.722;0.500;2023-08-31T12:34:00;2;2;
49462;PMS5003;35357;51.722;0.500;2023-08-31T12:36:28;3;3;
49462;PMS5003;35357;51.722;0.500;2023-08-31T12:38:54;4;3;
49462;PMS5003;35357;51.722;0.500;2023-08-31T12:41:21;4;3;
49462;PMS5003;35357;51.722;0.500;2023-08-31T12:43:49;4;4;
49462;PMS5003;35357;51.722;0.500;2023-08-31T12:46:16;3;3;
49462;PMS5003;35357;51.722;0.500;2023-08-31T12:48:44;2;2;
49462;PMS5003;35357;51.722;0.500;2023-08-31T12:51:10;3;3;
49462;PMS5003;35357;51.722;0.500;2023-08-31T12:53:37;3;3;
49462;PMS5003;35357;51.722;0.500;2023-08-31T12:56:05;4;3;
49462;PMS5003;35357;51.722;0.500;2023-08-31T12:58:32;4;3;
49462;PMS5003;35357;51.722;0.500;2023-08-31T13:00:59;3;3;
49462;PMS5003;35357;51.722;0.500;2023-08-31T13:03:27;4;4;
49462;PMS5003;35357;51.722;0.500;2023-08-31T13:05:53;3;3;
49462;PMS5003;35357;51.722;0.500;2023-08-31T13:08:21;4;4;
49462;PMS5003;35357;51.722;0.500;2023-08-31T13:10:52;3;3;
49462;PMS5003;35357;51.722;0.500;2023-08-31T13:13:19;4;3;
49462;PMS5003;35357;51.722;0.500;2023-08-31T13:15:47;3;3;
49462;PMS5003;35357;51.722;0.500;2023-08-31T13:18:15;4;4;
49462;PMS5003;35357;51.722;0.500;2023-08-31T13:20:48;5;5;
49462;PMS5003;35357;51.722;0.500;2023-08-31T13:23:16;2;2;
49462;PMS5003;35357;51.722;0.500;2023-08-31T13:25:43;3;3;
49462;PMS5003;35357;51.722;0.500;2023-08-31T13:28:10;4;4;
49462;PMS5003;35357;51.722;0.500;2023-08-31T13:30:37;5;5;
49462;PMS5003;35357;51.722;0.500;2023-08-31T13:33:05;5;5;
49462;PMS5003;35357;51.722;0.500;2023-08-31T13:35:33;1;1;
49462;PMS5003;35357;51.722;0.500;2023-08-31T13:38:01;4;4;
49462;PMS5003;35357;51.722;0.500;2023-08-31T13:40:29;4;4;
49462;PMS5003;35357;51.722;0.500;2023-08-31T13:42:57;6;5;
49462;PMS5003;35357;51.722;0.500;2023-08-31T13:45:26;4;4;
49462;PMS5003;35357;51.722;0.500;2023-08-31T13:47:54;5;4;
49462;PMS5003;35357;51.722;0.500;2023-08-31T13:50:20;4;4;
49462;PMS5003;35357;51.722;0.500;2023-08-31T13:52:47;6;5;
49462;PMS5003;35357;51.722;0.500;2023-08-31T13:55:15;4;4;
49462;PMS5003;35357;51.722;0.500;2023-08-31T13:57:42;6;5;
49462;PMS5003;35357;51.722;0.500;2023-08-31T14:00:10;4;4;
49462;PMS5003;35357;51.722;0.500;2023-08-31T14:02:37;5;5;
49462;PMS5003;35357;51.722;0.500;2023-08-31T14:05:04;5;5;
49462;PMS5003;35357;51.722;0.500;2023-08-31T14:07:32;5;5;
49462;PMS5003;35357;51.722;0.500;2023-08-31T14:09:58;3;3;
49462;PMS5003;35357;51.722;0.500;2023-08-31T14:12:26;6;6;
49462;PMS5003;35357;51.722;0.500;2023-08-31T14:14:53;4;4;
49462;PMS5003;35357;51.722;0.500;2023-08-31T14:17:19;5;5;
49462;PMS5003;35357;51.722;0.500;2023-08-31T14:19:46;6;6;
49462;PMS5003;35357;51.722;0.500;2023-08-31T14:22:13;6;6;
49462;PMS5003;35357;51.722;0.500;2023-08-31T14:24:40;6;6;
49462;PMS5003;35357;51.722;0.500;2023-08-31T14:27:06;7;7;
49462;PMS5003;35357;51.722;0.500;2023-08-31T14:29:33;6;6;
49462;PMS5003;35357;51.722;0.500;2023-08-31T14:32:00;5;5;
49462;PMS5003;35357;51.722;0.500;2023-08-31T14:34:27;6;6;
49462;PMS5003;35357;51.722;0.500;2023-08-31T14:36:54;6;5;
49462;PMS5003;35357;51.722;0.500;2023-08-31T14:39:21;8;7;
49462;PMS5003;35357;51.722;0.500;2023-08-31T14:41:48;8;8;
49462;PMS5003;35357;51.722;0.500;2023-08-31T14:44:15;9;7;
49462;PMS5003;35357;51.722;0.500;2023-08-31T14:46:42;8;7;
49462;PMS5003;35357;51.722;0.500;2023-08-31T14:49:09;7;7;
49462;PMS5003;35357;51.722;0.500;2023-08-31T14:51:36;7;7;
49462;PMS5003;35357;51.722;0.500;2023-08-31T14:54:03;9;7;
49462;PMS5003;35357;51.722;0.500;2023-08-31T14:56:30;7;7;
49462;PMS5003;35357;51.722;0.500;2023-08-31T14:58:58;8;8;
49462;PMS5003;35357;51.722;0.500;2023-08-31T15:01:24;5;5;
49462;PMS5003;35357;51.722;0.500;2023-08-31T15:03:51;7;6;
49462;PMS5003;35357;51.722;0.500;2023-08-31T15:06:18;6;6;
49462;PMS5003;35357;51.722;0.500;2023-08-31T15:08:44;6;6;
49462;PMS5003;35357;51.722;0.500;2023-08-31T15:11:12;7;6;
49462;PMS5003;35357;51.722;0.500;2023-08-31T15:13:39;12;11;
49462;PMS5003;35357;51.722;0.500;2023-08-31T15:16:06;7;7;
49462;PMS5003;35357;51.722;0.500;2023-08-31T15:18:33;5;5;
49462;PMS5003;35357;51.722;0.500;2023-08-31T15:21:00;6;5;
49462;PMS5003;35357;51.722;0.500;2023-08-31T15:23:27;5;5;
49462;PMS5003;35357;51.722;0.500;2023-08-31T15:25:58;4;4;
49462;PMS5003;35357;51.722;0.500;2023-08-31T15:28:26;5;5;
49462;PMS5003;35357;51.722;0.500;2023-08-31T15:30:53;4;4;
49462;PMS5003;35357;51.722;0.500;2023-08-31T15:33:20;5;5;
49462;PMS5003;35357;51.722;0.500;2023-08-31T15:35:46;7;6;
49462;PMS5003;35357;51.722;0.500;2023-08-31T15:38:13;9;9;
49462;PMS5003;35357;51.722;0.500;2023-08-31T15:40:45;6;6;
49462;PMS5003;35357;51.722;0.500;2023-08-31T15:43:13;8;6;
49462;PMS5003;35357;51.722;0.500;2023-08-31T15:45:41;10;7;
49462;PMS5003;35357;51.722;0.500;2023-08-31T15:48:11;6;6;
49462;PMS5003;35357;51.722;0.500;2023-08-31T15:50:39;8;6;
49462;PMS5003;35357;51.722;0.500;2023-08-31T15:53:06;8;6;
49462;PMS5003;35357;51.722;0.500;2023-08-31T15:55:32;4;4;
49462;PMS5003;35357;51.722;0.500;2023-08-31T15:58:00;5;4;
49462;PMS5003;35357;51.722;0.500;2023-08-31T16:00:27;4;3;
49462;PMS5003;35357;51.722;0.500;2023-08-31T16:02:56;6;6;
49462;PMS5003;35357;51.722;0.500;2023-08-31T16:05:23;4;4;
49462;PMS5003;35357;51.722;0.500;2023-08-31T16:07:49;5;5;
49462;PMS5003;35357;51.722;0.500;2023-08-31T16:10:16;5;5;
49462;PMS5003;35357;51.722;0.500;2023-08-31T16:12:44;4;4;
49462;PMS5003;35357;51.722;0.500;2023-08-31T16:15:11;4;4;
49462;PMS5003;35357;51.722;0.500;2023-08-31T16:17:38;4;4;
49462;PMS5003;35357;51.722;0.500;2023-08-31T16:20:05;4;3;
49462;PMS5003;35357;51.722;0.500;2023-08-31T16:22:33;5;5;
49462;PMS5003;35357;51.722;0.500;2023-08-31T16:25:01;4;3;
49462;PMS5003;35357;51.722;0.500;2023-08-31T16:27:28;4;4;
49462;PMS5003;35357;51.722;0.500;2023-08-31T16:29:55;5;5;
49462;PMS5003;35357;51.722;0.500;2023-08-31T16:32:22;3;3;
49462;PMS5003;35357;51.722;0.500;2023-08-31T16:34:50;6;5;
49462;PMS5003;35357;51.722;0.500;2023-08-31T16:37:18;6;4;
49462;PMS5003;35357;51.722;0.500;2023-08-31T16:39:46;6;5;
49462;PMS5003;35357;51.722;0.500;2023-08-31T16:42:13;3;3;
49462;PMS5003;35357;51.722;0.500;2023-08-31T16:44:40;4;4;
49462;PMS5003;35357;51.722;0.500;2023-08-31T16:47:07;6;5;
49462;PMS5003;35357;51.722;0.500;2023-08-31T16:49:34;4;4;
49462;PMS5003;35357;51.722;0.500;2023-08-31T16:52:01;4;3;
49462;PMS5003;35357;51.722;0.500;2023-08-31T16:54:28;3;3;